createdAt,value
2018-08-20T00:01:28.968Z,5.27
2018-08-20T00:03:59.763Z,6.40
2018-08-20T00:06:28.944Z,4.13
2018-08-20T00:08:57.096Z,6.10
2018-08-20T00:11:25.233Z,4.40
2018-08-20T00:13:53.429Z,5.53
2018-08-20T00:16:21.616Z,5.07
2018-08-20T00:18:49.788Z,4.90
2018-08-20T00:21:17.966Z,5.47
2018-08-20T00:23:46.090Z,4.60
2018-08-20T00:26:14.269Z,4.50
2018-08-20T00:28:42.432Z,4.20
2018-08-20T00:31:10.594Z,3.93
2018-08-20T00:33:38.794Z,4.30
2018-08-20T00:36:06.940Z,5.27
2018-08-20T00:38:35.106Z,5.13
2018-08-20T00:41:03.219Z,5.03
2018-08-20T00:43:31.382Z,4.80
2018-08-20T00:45:59.530Z,5.47
2018-08-20T00:48:27.668Z,5.03
2018-08-20T00:50:55.806Z,5.70
2018-08-20T00:53:23.955Z,5.13
2018-08-20T00:55:52.136Z,5.30
2018-08-20T00:58:20.303Z,5.83
2018-08-20T01:00:48.452Z,4.93
2018-08-20T01:03:16.655Z,4.80
2018-08-20T01:05:44.818Z,5.40
2018-08-20T01:08:12.972Z,5.43
2018-08-20T01:10:41.207Z,4.67
2018-08-20T01:13:09.402Z,4.73
2018-08-20T01:15:37.571Z,5.80
2018-08-20T01:18:05.826Z,5.13
2018-08-20T01:20:34.115Z,5.10
2018-08-20T01:23:02.253Z,4.93
2018-08-20T01:25:30.399Z,5.30
2018-08-20T01:27:58.540Z,5.57
2018-08-20T01:30:26.694Z,5.10
2018-08-20T01:33:01.276Z,5.13
2018-08-20T01:35:29.433Z,4.40
2018-08-20T01:37:57.631Z,5.17
2018-08-20T01:40:25.896Z,4.67
2018-08-20T01:42:54.051Z,5.57
2018-08-20T01:45:22.260Z,4.43
2018-08-20T01:47:50.419Z,5.10
2018-08-20T01:50:18.572Z,4.20
2018-08-20T01:52:46.761Z,6.10
2018-08-20T01:55:14.916Z,5.47
2018-08-20T01:57:43.116Z,6.27
2018-08-20T02:00:11.343Z,5.40
2018-08-20T02:02:39.485Z,5.00
2018-08-20T02:05:07.979Z,5.40
2018-08-20T02:07:36.175Z,6.23
2018-08-20T02:10:05.476Z,4.60
2018-08-20T02:12:33.668Z,6.60
2018-08-20T02:15:02.870Z,5.20
2018-08-20T02:17:31.024Z,6.17
2018-08-20T02:19:59.185Z,6.20
2018-08-20T02:22:27.379Z,5.87
2018-08-20T02:24:55.540Z,5.87
2018-08-20T02:27:23.703Z,6.30
2018-08-20T02:29:51.892Z,5.47
2018-08-20T02:32:20.041Z,6.60
2018-08-20T02:34:48.252Z,5.40
2018-08-20T02:37:16.414Z,4.53
2018-08-20T02:39:44.564Z,5.57
2018-08-20T02:42:12.729Z,5.37
2018-08-20T02:44:40.881Z,5.80
2018-08-20T02:47:09.052Z,5.30
2018-08-20T02:49:37.234Z,5.70
2018-08-20T02:52:05.592Z,5.40
2018-08-20T02:54:33.859Z,5.30
2018-08-20T02:57:02.064Z,5.37
2018-08-20T02:59:30.216Z,5.53
2018-08-20T03:01:58.373Z,7.40
2018-08-20T03:04:26.538Z,5.13
2018-08-20T03:06:54.685Z,5.00
2018-08-20T03:09:22.867Z,5.43
2018-08-20T03:11:51.079Z,5.43
2018-08-20T03:14:19.220Z,5.23
2018-08-20T03:16:47.370Z,5.00
2018-08-20T03:19:15.525Z,5.23
2018-08-20T03:21:43.668Z,5.20
2018-08-20T03:24:11.812Z,6.20
2018-08-20T03:26:39.976Z,4.60
2018-08-20T03:29:08.184Z,4.60
2018-08-20T03:31:36.473Z,5.90
2018-08-20T03:34:04.717Z,4.47
2018-08-20T03:36:32.857Z,6.20
2018-08-20T03:39:01.010Z,4.97
2018-08-20T03:41:29.159Z,5.07
2018-08-20T03:43:57.340Z,5.27
2018-08-20T03:46:25.503Z,6.07
2018-08-20T03:48:53.755Z,4.20
2018-08-20T03:51:21.897Z,4.90
2018-08-20T03:53:50.077Z,5.90
2018-08-20T03:56:18.225Z,6.03
2018-08-20T03:58:46.418Z,7.10
2018-08-20T04:01:14.569Z,7.70
2018-08-20T04:03:42.729Z,6.83
2018-08-20T04:06:10.881Z,5.00
2018-08-20T04:08:39.068Z,5.53
2018-08-20T04:11:07.200Z,5.30
2018-08-20T04:13:35.364Z,16.90
2018-08-20T04:16:03.520Z,6.67
2018-08-20T04:18:31.704Z,7.10
2018-08-20T04:21:02.905Z,6.03
2018-08-20T04:23:30.813Z,5.93
2018-08-20T04:25:58.997Z,5.13
2018-08-20T04:28:27.148Z,7.70
2018-08-20T04:30:55.311Z,7.27
2018-08-20T04:33:23.468Z,6.20
2018-08-20T04:35:51.627Z,6.40
2018-08-20T04:38:19.766Z,6.30
2018-08-20T04:40:47.927Z,6.53
2018-08-20T04:43:16.073Z,6.57
2018-08-20T04:45:44.241Z,6.00
2018-08-20T04:48:12.450Z,5.90
2018-08-20T04:50:40.680Z,5.43
2018-08-20T04:53:08.746Z,5.27
2018-08-20T04:55:36.922Z,9.03
2018-08-20T04:58:05.117Z,15.67
2018-08-20T05:00:33.260Z,9.03
2018-08-20T05:03:01.481Z,6.30
2018-08-20T05:05:29.631Z,5.97
2018-08-20T05:07:57.821Z,6.30
2018-08-20T05:10:25.967Z,5.83
2018-08-20T05:12:54.149Z,6.33
2018-08-20T05:15:22.357Z,5.83
2018-08-20T05:17:50.524Z,5.47
2018-08-20T05:20:18.665Z,6.30
2018-08-20T05:22:46.965Z,5.67
2018-08-20T05:25:15.132Z,6.33
2018-08-20T05:27:43.340Z,7.70
2018-08-20T05:30:11.548Z,7.03
2018-08-20T05:32:39.749Z,6.63
2018-08-20T05:35:07.949Z,7.80
2018-08-20T05:37:36.216Z,7.70
2018-08-20T05:40:04.552Z,6.03
2018-08-20T05:42:32.682Z,6.20
2018-08-20T05:45:00.900Z,5.90
2018-08-20T05:47:29.037Z,5.97
2018-08-20T05:49:57.237Z,5.77
2018-08-20T05:52:25.494Z,5.23
2018-08-20T05:54:53.653Z,5.47
2018-08-20T05:57:21.856Z,6.50
2018-08-20T05:59:49.990Z,5.80
2018-08-20T06:02:18.161Z,5.97
2018-08-20T06:04:46.355Z,6.17
2018-08-20T06:07:14.530Z,6.00
2018-08-20T06:09:42.696Z,6.00
2018-08-20T06:12:10.856Z,5.90
2018-08-20T06:14:39.010Z,5.70
2018-08-20T06:17:07.226Z,6.50
2018-08-20T06:19:35.408Z,5.73
2018-08-20T06:22:03.571Z,7.47
2018-08-20T06:24:31.749Z,6.30
2018-08-20T06:26:59.939Z,6.83
2018-08-20T06:29:28.145Z,6.77
2018-08-20T06:31:56.450Z,6.37
2018-08-20T06:34:24.676Z,5.70
2018-08-20T06:36:52.912Z,6.67
2018-08-20T06:39:21.241Z,5.90
2018-08-20T06:41:49.409Z,7.30
2018-08-20T06:44:17.560Z,6.60
2018-08-20T06:46:45.717Z,6.47
2018-08-20T06:49:13.912Z,6.17
2018-08-20T06:51:42.081Z,6.33
2018-08-20T06:54:10.254Z,5.60
2018-08-20T06:56:38.435Z,6.60
2018-08-20T06:59:06.689Z,6.73
2018-08-20T07:01:34.853Z,6.73
2018-08-20T07:04:03.072Z,6.90
2018-08-20T07:06:31.339Z,6.53
2018-08-20T07:08:59.498Z,6.00
2018-08-20T07:11:27.672Z,5.60
2018-08-20T07:13:55.834Z,6.27
2018-08-20T07:16:24.009Z,5.50
2018-08-20T07:18:52.776Z,6.20
2018-08-20T07:21:20.977Z,5.93
2018-08-20T07:23:49.203Z,5.70
2018-08-20T07:26:17.288Z,5.90
2018-08-20T07:28:45.506Z,5.80
2018-08-20T07:31:13.451Z,6.27
2018-08-20T07:33:41.601Z,6.00
2018-08-20T07:36:09.804Z,6.00
2018-08-20T07:38:37.977Z,5.90
2018-08-20T07:41:06.234Z,6.10
2018-08-20T07:43:34.167Z,5.60
2018-08-20T07:46:02.329Z,6.60
2018-08-20T07:48:30.565Z,6.37
2018-08-20T07:50:58.733Z,6.10
2018-08-20T07:53:26.894Z,5.53
2018-08-20T07:55:55.067Z,7.30
2018-08-20T07:58:23.243Z,5.70
2018-08-20T08:00:51.409Z,5.50
2018-08-20T08:03:28.843Z,5.90
2018-08-20T08:05:58.299Z,5.43
2018-08-20T08:08:26.530Z,5.43
2018-08-20T08:10:54.725Z,6.10
2018-08-20T08:13:23.101Z,4.97
2018-08-20T08:15:51.296Z,5.80
2018-08-20T08:18:19.420Z,6.00
2018-08-20T08:20:47.586Z,5.57
2018-08-20T08:23:15.781Z,6.50
2018-08-20T08:25:43.952Z,6.80
2018-08-20T08:28:12.106Z,6.67
2018-08-20T08:30:40.300Z,7.07
2018-08-20T08:33:08.500Z,6.73
2018-08-20T08:35:36.659Z,6.33
2018-08-20T08:38:04.865Z,6.70
2018-08-20T08:40:33.013Z,6.60
2018-08-20T08:43:01.216Z,6.00
2018-08-20T08:45:29.376Z,7.17
2018-08-20T08:47:57.533Z,6.67
2018-08-20T08:50:25.693Z,6.73
2018-08-20T08:52:53.872Z,6.30
2018-08-20T08:55:22.035Z,6.87
2018-08-20T08:57:50.207Z,7.90
2018-08-20T09:00:19.249Z,6.80
2018-08-20T09:02:47.464Z,7.33
2018-08-20T09:05:15.751Z,7.20
2018-08-20T09:07:44.084Z,7.13
2018-08-20T09:10:12.443Z,6.00
2018-08-20T09:12:40.888Z,6.97
2018-08-20T09:15:12.636Z,6.53
2018-08-20T09:17:40.828Z,7.20
2018-08-20T09:20:11.082Z,5.87
2018-08-20T09:22:39.348Z,7.87
2018-08-20T09:25:08.671Z,6.33
2018-08-20T09:27:36.813Z,6.90
2018-08-20T09:30:08.833Z,6.63
2018-08-20T09:32:44.127Z,6.33
2018-08-20T09:35:12.337Z,7.17
2018-08-20T09:37:40.520Z,6.20
2018-08-20T09:40:09.581Z,6.03
2018-08-20T09:42:38.481Z,8.73
2018-08-20T09:45:06.949Z,7.10
2018-08-20T09:47:35.673Z,6.83
2018-08-20T09:50:04.465Z,6.83
2018-08-20T09:52:32.627Z,7.13
2018-08-20T09:55:00.792Z,5.93
2018-08-20T09:57:28.937Z,6.03
2018-08-20T09:59:57.092Z,6.07
2018-08-20T10:02:25.516Z,5.30
2018-08-20T10:04:53.684Z,5.63
2018-08-20T10:07:21.896Z,6.57
2018-08-20T10:09:50.068Z,6.23
2018-08-20T10:12:18.326Z,5.70
2018-08-20T10:14:46.668Z,6.30
2018-08-20T10:17:14.846Z,5.60
2018-08-20T10:19:43.029Z,6.87
2018-08-20T10:22:11.192Z,6.27
2018-08-20T10:24:39.402Z,5.77
2018-08-20T10:27:07.578Z,5.13
2018-08-20T10:29:35.752Z,5.70
2018-08-20T10:32:03.916Z,5.70
2018-08-20T10:34:32.040Z,6.40
2018-08-20T10:37:00.265Z,5.30
2018-08-20T10:39:28.434Z,6.40
2018-08-20T10:41:56.363Z,5.00
2018-08-20T10:44:24.509Z,4.10
2018-08-20T10:46:52.708Z,4.90
2018-08-20T10:49:20.841Z,5.10
2018-08-20T10:51:48.986Z,4.00
2018-08-20T10:54:17.375Z,4.23
2018-08-20T10:56:45.523Z,3.90
2018-08-20T10:59:13.699Z,3.83
2018-08-20T11:01:41.920Z,4.73
2018-08-20T11:04:10.118Z,3.73
2018-08-20T11:06:38.257Z,3.80
2018-08-20T11:09:07.727Z,4.13
2018-08-20T11:11:35.944Z,3.40
2018-08-20T11:14:04.054Z,3.33
2018-08-20T11:16:32.220Z,3.13
2018-08-20T11:19:00.373Z,3.27
2018-08-20T11:21:28.560Z,3.40
2018-08-20T11:23:56.712Z,4.80
2018-08-20T11:26:24.896Z,5.17
2018-08-20T11:28:53.055Z,5.00
2018-08-20T11:31:21.217Z,4.63
2018-08-20T11:33:49.382Z,4.23
2018-08-20T11:36:17.550Z,4.27
2018-08-20T11:38:45.699Z,4.47
2018-08-20T11:41:13.946Z,3.83
2018-08-20T11:43:42.104Z,5.10
2018-08-20T11:46:10.270Z,4.40
2018-08-20T11:48:38.443Z,4.17
2018-08-20T11:51:07.145Z,3.90
2018-08-20T11:53:35.437Z,3.60
2018-08-20T11:56:03.719Z,4.43
2018-08-20T11:58:32.368Z,4.37
2018-08-20T12:01:00.534Z,3.47
2018-08-20T12:03:28.705Z,3.60
2018-08-20T12:05:56.878Z,3.90
2018-08-20T12:08:25.038Z,3.70
2018-08-20T12:10:53.194Z,5.63
2018-08-20T12:13:21.446Z,4.30
2018-08-20T12:15:49.636Z,4.40
2018-08-20T12:18:17.798Z,3.27
2018-08-20T12:20:45.931Z,3.67
2018-08-20T12:23:14.243Z,3.87
2018-08-20T12:25:42.288Z,3.20
2018-08-20T12:28:10.472Z,3.17
2018-08-20T12:30:38.617Z,3.37
2018-08-20T12:33:07.078Z,3.80
2018-08-20T12:35:35.294Z,3.17
2018-08-20T12:38:03.526Z,3.50
2018-08-20T12:40:31.519Z,3.43
2018-08-20T12:42:59.581Z,3.17
2018-08-20T12:45:27.774Z,3.80
2018-08-20T12:47:55.989Z,5.33
2018-08-20T12:50:24.162Z,3.40
2018-08-20T12:52:52.324Z,3.40
2018-08-20T12:55:20.489Z,3.27
2018-08-20T12:57:48.632Z,3.23
2018-08-20T13:00:16.801Z,3.07
2018-08-20T13:02:44.705Z,3.77
2018-08-20T13:05:12.884Z,3.53
2018-08-20T13:07:41.116Z,3.40
2018-08-20T13:10:09.300Z,2.80
2018-08-20T13:12:37.473Z,3.70
2018-08-20T13:15:05.854Z,3.13
2018-08-20T13:17:34.017Z,3.30
2018-08-20T13:20:02.173Z,3.53
2018-08-20T13:22:30.487Z,3.77
2018-08-20T13:24:58.642Z,3.70
2018-08-20T13:27:26.804Z,5.10
2018-08-20T13:29:54.956Z,3.67
2018-08-20T13:32:23.162Z,3.90
2018-08-20T13:34:51.351Z,3.30
2018-08-20T13:37:19.573Z,3.40
2018-08-20T13:39:47.709Z,3.57
2018-08-20T13:42:15.884Z,3.30
2018-08-20T13:44:44.060Z,3.80
2018-08-20T13:47:12.209Z,3.20
2018-08-20T13:49:40.380Z,2.40
2018-08-20T13:52:08.541Z,3.40
2018-08-20T13:54:36.693Z,3.47
2018-08-20T13:57:06.562Z,2.80
2018-08-20T13:59:34.736Z,3.30
2018-08-20T14:02:02.917Z,3.30
2018-08-20T14:04:31.053Z,2.90
2018-08-20T14:06:59.259Z,2.57
2018-08-20T14:09:27.444Z,3.07
2018-08-20T14:11:55.621Z,2.60
2018-08-20T14:14:23.808Z,3.20
2018-08-20T14:16:52.049Z,2.53
2018-08-20T14:19:20.251Z,2.63
2018-08-20T14:21:48.417Z,2.47
2018-08-20T14:24:16.641Z,2.70
2018-08-20T14:26:44.792Z,2.73
2018-08-20T14:29:12.946Z,2.47
2018-08-20T14:31:41.090Z,2.50
2018-08-20T14:34:09.236Z,2.77
2018-08-20T14:36:37.506Z,2.80
2018-08-20T14:39:06.783Z,2.40
2018-08-20T14:41:35.217Z,2.50
2018-08-20T14:44:03.520Z,2.20
2018-08-20T14:46:31.889Z,2.83
2018-08-20T14:49:00.142Z,2.67
2018-08-20T14:51:28.386Z,2.70
2018-08-20T14:53:56.607Z,3.00
2018-08-20T14:56:24.660Z,3.43
2018-08-20T14:58:53.266Z,2.30
2018-08-20T15:01:21.398Z,3.00
2018-08-20T15:03:49.541Z,3.37
2018-08-20T15:06:17.704Z,3.10
2018-08-20T15:08:45.848Z,3.83
2018-08-20T15:11:14.015Z,3.30
2018-08-20T15:13:42.188Z,3.60
2018-08-20T15:16:10.333Z,3.00
2018-08-20T15:18:38.503Z,3.00
2018-08-20T15:21:06.836Z,3.23
2018-08-20T15:23:34.993Z,3.03
2018-08-20T15:26:03.232Z,2.80
2018-08-20T15:28:31.500Z,2.80
2018-08-20T15:30:59.705Z,3.53
2018-08-20T15:33:27.880Z,3.70
2018-08-20T15:35:56.124Z,4.23
2018-08-20T15:38:24.278Z,4.23
2018-08-20T15:40:52.425Z,3.53
2018-08-20T15:43:20.621Z,3.57
2018-08-20T15:45:48.776Z,3.97
2018-08-20T15:48:16.937Z,3.90
2018-08-20T15:50:45.108Z,3.90
2018-08-20T15:53:13.270Z,4.40
2018-08-20T15:55:41.613Z,3.60
2018-08-20T15:58:09.782Z,3.83
2018-08-20T16:00:37.967Z,3.87
2018-08-20T16:03:06.608Z,3.57
2018-08-20T16:05:34.567Z,4.30
2018-08-20T16:08:02.737Z,4.60
2018-08-20T16:10:30.909Z,3.90
2018-08-20T16:12:59.068Z,4.50
2018-08-20T16:15:27.203Z,3.60
2018-08-20T16:17:55.120Z,3.60
2018-08-20T16:20:23.316Z,3.70
2018-08-20T16:22:51.517Z,3.30
2018-08-20T16:25:19.660Z,3.50
2018-08-20T16:27:47.821Z,4.30
2018-08-20T16:30:15.976Z,3.63
2018-08-20T16:32:44.176Z,3.33
2018-08-20T16:35:13.140Z,3.33
2018-08-20T16:37:42.434Z,3.57
2018-08-20T16:40:10.613Z,3.90
2018-08-20T16:42:38.872Z,4.00
2018-08-20T16:45:08.028Z,3.37
2018-08-20T16:47:36.208Z,3.70
2018-08-20T16:50:06.116Z,3.93
2018-08-20T16:52:34.268Z,3.73
2018-08-20T16:55:02.445Z,3.50
2018-08-20T16:57:30.629Z,4.60
2018-08-20T16:59:58.845Z,4.10
2018-08-20T17:02:30.152Z,4.43
2018-08-20T17:04:58.360Z,3.93
2018-08-20T17:07:26.506Z,4.90
2018-08-20T17:09:54.658Z,4.70
2018-08-20T17:12:22.795Z,4.13
2018-08-20T17:14:50.967Z,4.30
2018-08-20T17:17:19.096Z,4.10
2018-08-20T17:19:47.309Z,3.80
2018-08-20T17:22:15.812Z,4.30
2018-08-20T17:24:43.946Z,4.07
2018-08-20T17:27:12.576Z,4.20
2018-08-20T17:29:40.778Z,3.07
2018-08-20T17:32:09.735Z,3.20
2018-08-20T17:34:40.276Z,3.33
2018-08-20T17:37:08.524Z,3.40
2018-08-20T17:39:51.189Z,3.00
2018-08-20T17:42:19.370Z,3.50
2018-08-20T17:44:47.505Z,2.73
2018-08-20T17:47:19.903Z,3.03
2018-08-20T17:49:48.077Z,2.80
2018-08-20T17:52:16.232Z,3.33
2018-08-20T17:54:44.377Z,2.90
2018-08-20T17:57:12.611Z,2.60
2018-08-20T18:02:22.510Z,2.47
2018-08-20T18:04:50.915Z,3.30
2018-08-20T18:07:19.039Z,3.60
2018-08-20T18:09:47.194Z,2.63
2018-08-20T18:12:15.373Z,2.77
2018-08-20T18:14:44.189Z,2.70
2018-08-20T18:17:12.429Z,3.00
2018-08-20T18:19:40.517Z,2.70
2018-08-20T18:22:08.757Z,2.57
2018-08-20T18:24:36.921Z,2.63
2018-08-20T18:27:05.087Z,2.70
2018-08-20T18:29:33.343Z,3.10
2018-08-20T18:32:02.985Z,3.37
2018-08-20T18:34:31.176Z,3.67
2018-08-20T18:37:02.442Z,3.90
2018-08-20T18:39:30.585Z,4.40
2018-08-20T18:42:01.777Z,4.87
2018-08-20T18:44:29.938Z,4.70
2018-08-20T18:46:58.104Z,5.30
2018-08-20T18:49:26.241Z,5.50
2018-08-20T18:52:12.532Z,5.43
2018-08-20T18:54:42.986Z,4.43
2018-08-20T18:57:15.888Z,5.60
2018-08-20T18:59:44.052Z,6.60
2018-08-20T19:02:19.747Z,5.43
2018-08-20T19:04:48.251Z,4.93
2018-08-20T19:07:16.725Z,5.57
2018-08-20T19:09:47.965Z,5.00
2018-08-20T19:12:16.246Z,5.07
2018-08-20T19:14:44.421Z,5.90
2018-08-20T19:17:16.852Z,4.50
2018-08-20T19:19:47.276Z,5.47
2018-08-20T19:22:20.901Z,5.03
2018-08-20T19:24:49.076Z,4.80
2018-08-20T19:27:17.260Z,4.70
2018-08-20T19:29:45.449Z,5.03
2018-08-20T19:32:13.620Z,4.60
2018-08-20T19:34:41.763Z,4.70
2018-08-20T19:37:09.924Z,5.20
2018-08-20T19:39:38.073Z,5.07
2018-08-20T19:42:06.830Z,5.23
2018-08-20T19:44:34.993Z,4.90
2018-08-20T19:47:03.137Z,4.47
2018-08-20T19:49:31.349Z,4.53
2018-08-20T19:51:59.481Z,5.10
2018-08-20T19:54:27.966Z,5.30
2018-08-20T19:56:56.098Z,4.60
2018-08-20T19:59:29.678Z,4.57
2018-08-20T20:01:57.846Z,4.93
2018-08-20T20:04:26.005Z,3.97
2018-08-20T20:06:54.182Z,4.93
2018-08-20T20:09:22.334Z,4.07
2018-08-20T20:11:51.723Z,3.77
2018-08-20T20:14:19.868Z,4.80
2018-08-20T20:16:53.212Z,4.10
2018-08-20T20:19:21.531Z,5.50
2018-08-20T20:21:49.689Z,4.70
2018-08-20T20:24:17.893Z,4.47
2018-08-20T20:26:46.111Z,4.20
2018-08-20T20:29:14.338Z,7.13
2018-08-20T20:31:43.094Z,5.17
2018-08-20T20:34:11.320Z,4.50
2018-08-20T20:36:39.559Z,4.43
2018-08-20T20:39:10.260Z,5.00
2018-08-20T20:41:38.433Z,4.43
2018-08-20T20:44:07.349Z,5.87
2018-08-20T20:46:35.519Z,4.87
2018-08-20T20:49:03.681Z,5.73
2018-08-20T20:51:31.843Z,5.67
2018-08-20T20:54:00.053Z,5.30
2018-08-20T20:56:28.233Z,4.70
2018-08-20T20:58:56.380Z,4.20
2018-08-20T21:01:24.538Z,4.47
2018-08-20T21:03:52.700Z,4.70
2018-08-20T21:06:20.896Z,4.60
2018-08-20T21:08:49.662Z,4.73
2018-08-20T21:11:18.957Z,4.13
2018-08-20T21:13:47.348Z,4.27
2018-08-20T21:16:16.892Z,4.10
2018-08-20T21:18:48.879Z,4.67
2018-08-20T21:21:17.957Z,3.90
2018-08-20T21:23:46.204Z,3.73
2018-08-20T21:26:14.472Z,4.77
2018-08-20T21:28:45.688Z,4.83
2018-08-20T21:31:14.900Z,5.17
2018-08-20T21:33:43.617Z,4.43
2018-08-20T21:36:12.503Z,4.87
2018-08-20T21:38:40.789Z,4.03
2018-08-20T21:41:08.973Z,4.60
2018-08-20T21:43:42.625Z,4.43
2018-08-20T21:46:11.501Z,4.33
2018-08-20T21:48:40.048Z,5.30
2018-08-20T21:51:28.671Z,4.30
2018-08-20T21:53:57.155Z,5.70
2018-08-20T21:56:29.800Z,4.80
2018-08-20T21:58:58.015Z,4.80
2018-08-20T22:01:26.193Z,5.07
2018-08-20T22:03:54.394Z,5.20
2018-08-20T22:06:22.549Z,5.30
2018-08-20T22:08:50.733Z,5.93
2018-08-20T22:11:18.922Z,6.23
2018-08-20T22:13:47.104Z,4.70
2018-08-20T22:16:18.740Z,5.87
2018-08-20T22:18:51.212Z,5.80
2018-08-20T22:21:19.378Z,6.33
2018-08-20T22:23:47.653Z,5.57
2018-08-20T22:26:18.323Z,5.30
2018-08-20T22:28:48.680Z,5.43
2018-08-20T22:31:16.945Z,5.53
2018-08-20T22:33:52.337Z,4.70
2018-08-20T22:36:20.496Z,5.83
2018-08-20T22:38:52.493Z,5.90
2018-08-20T22:41:21.480Z,6.43
2018-08-20T22:43:49.991Z,6.53
2018-08-20T22:46:18.992Z,7.00
2018-08-20T22:48:53.375Z,7.03
2018-08-20T22:51:22.139Z,6.27
2018-08-20T22:53:51.520Z,6.40
2018-08-20T22:56:28.837Z,7.07
2018-08-20T22:58:59.572Z,7.83
2018-08-20T23:01:27.788Z,7.10
2018-08-20T23:03:55.936Z,6.50
2018-08-20T23:06:24.356Z,6.87
2018-08-20T23:08:52.561Z,6.77
2018-08-20T23:11:36.978Z,7.40
2018-08-20T23:14:05.917Z,7.07
2018-08-20T23:16:34.121Z,7.47
2018-08-20T23:19:02.387Z,7.07
2018-08-20T23:21:47.781Z,8.00
2018-08-20T23:24:16.706Z,8.10
2018-08-20T23:26:44.857Z,6.90
2018-08-20T23:29:13.041Z,7.37
2018-08-20T23:31:41.563Z,5.73
2018-08-20T23:34:11.923Z,7.10
2018-08-20T23:36:40.596Z,6.40
2018-08-20T23:39:10.620Z,8.20
2018-08-20T23:41:39.013Z,7.07
2018-08-20T23:44:07.497Z,6.60
2018-08-20T23:46:42.274Z,6.57
2018-08-20T23:49:10.465Z,6.53
2018-08-20T23:51:38.660Z,5.80
2018-08-20T23:54:06.827Z,6.50
2018-08-20T23:56:34.982Z,6.40
2018-08-20T23:59:03.165Z,7.00
